Flight Track Log - Related Links

Times and Time Zones

All times are in EDT time to prevent confusion due to time zone crossing. See the CES2652 flight status page for this flight to view local times or setup timezone preferences in your user account.

Time Position Orientation Groundspeed Altitude Reporting Facility
EDT Latitude Longitude Course Direction KTS MPH feet Rate Location/Type
Mon 08:58:00 AM 30.7940 109.7495 86° East  Level Estimated
Mon 08:59:00 AM 30.7957 109.8732 89° East  Level Estimated
Mon 09:00:00 AM 30.7974 109.9968 89° East  Level Estimated
Mon 09:01:00 AM 30.7990 110.1205 89° East  Level Estimated
Mon 09:02:00 AM 30.8004 110.2442 89° East  Level Estimated
Mon 09:03:00 AM 30.8017 110.3679 89° East  Level Estimated
Mon 09:04:00 AM 30.8029 110.4916 89° East  Level Estimated
Mon 09:05:00 AM 30.8039 110.6153 89° East  Level Estimated
Mon 09:06:00 AM 30.8049 110.7390 89° East  Level Estimated
Mon 09:07:00 AM 30.8057 110.8627 90° East  Level Estimated
Mon 09:08:00 AM 30.8064 110.9864 90° East  Level Estimated
Mon 09:09:00 AM 30.8071 111.1101 90° East  Level Estimated
Mon 09:10:00 AM 30.8075 111.2338 90° East  Level Estimated
Mon 09:11:00 AM 30.8079 111.3576 90° East  Level Estimated
Mon 09:12:00 AM 30.8081 111.4813 90° East  Level Estimated
Mon 09:13:00 AM 30.8083 111.6050 90° East  Level Estimated
Mon 09:14:00 AM 30.8083 111.7287 90° East  Level Estimated
Mon 09:15:00 AM 30.8082 111.8524 90° East  Level Estimated
Mon 09:16:00 AM 30.8080 111.9761 90° East  Level Estimated
Mon 09:17:00 AM 30.8076 112.0998 90° East  Level Estimated
Mon 09:18:00 AM 30.8072 112.2235 90° East  Level Estimated
Mon 09:19:00 AM 30.8066 112.3472 90° East  Level Estimated
Mon 09:20:00 AM 30.8059 112.4709 90° East  Level Estimated
Mon 09:21:00 AM 30.8051 112.5947 90° East  Level Estimated
Mon 09:22:00 AM 30.8042 112.7184 90° East  Level Estimated
Mon 09:23:00 AM 30.8031 112.8420 91° East  Level Estimated
Mon 09:24:00 AM 30.8020 112.9658 91° East  Level Estimated
Mon 09:25:00 AM 30.8007 113.0894 91° East  Level Estimated
Mon 09:26:00 AM 30.7993 113.2131 91° East  Level Estimated
Mon 09:27:00 AM 30.7978 113.3368 91° East  Level Estimated
Mon 09:28:00 AM 30.7961 113.4605 91° East  Level Estimated
Mon 09:29:00 AM 30.7944 113.5842 91° East  Level Estimated
Mon 09:30:00 AM 30.7925 113.7078 91° East  Level Estimated
Mon 09:31:00 AM 30.7905 113.8315 91° East  Level Estimated
Mon 09:32:00 AM 30.7884 113.9552 91° East  Level Estimated
Mon 09:33:00 AM 30.7862 114.0788 91° East  Level Estimated
Mon 09:34:00 AM 30.7839 114.2025 91° East  Level Estimated
Mon 09:35:00 AM 30.7838 114.2081 91° East  Level Estimated
Mon 09:36:00 AM 30.7838 114.2081 180° South  Level Estimated
Mon 09:37:00 AM 30.7838 114.2081 180° South  Level Estimated
Mon 09:38:00 AM 30.7838 114.2081 180° South  Level Estimated
Mon 09:39:00 AM 30.7838 114.2081 180° South  Level Estimated
Mon 09:40:00 AM 30.7838 114.2081 180° South  Level Estimated
Mon 09:41:00 AM 30.7838 114.2081 180° South  Level Estimated
Mon 09:42:00 AM 30.7838 114.2081 180° South  Level Estimated
Mon 09:43:00 AM 30.7838 114.2081 180° South  Level Estimated
Mon 09:44:00 AM 30.7838 114.2081 180° South  Level Estimated
Mon 09:45:00 AM 30.7838 114.2081 180° South  Level Estimated
Mon 09:46:00 AM 30.7838 114.2081 180° South  Level Estimated
Mon 09:47:00 AM 30.7838 114.2081 180° South  Level Estimated
Mon 09:48:00 AM 30.7838 114.2081 180° South  Level Estimated
Mon 09:49:00 AM 30.7838 114.2081 180° South  Level Estimated
Mon 09:50:00 AM 30.7838 114.2081 180° South  Level Estimated

Login

Don't have an account? Register now (free) for customized features, flight alerts, and more!